createdAt,value
2019-03-17T00:00:17.837Z,8.49
2019-03-17T00:02:46.522Z,8.41
2019-03-17T00:05:15.148Z,8.26
2019-03-17T00:07:43.650Z,8.35
2019-03-17T00:10:12.671Z,8.37
2019-03-17T00:12:41.306Z,8.34
2019-03-17T00:15:10.160Z,8.31
2019-03-17T00:17:41.733Z,8.31
2019-03-17T00:20:09.241Z,8.22
2019-03-17T00:22:37.865Z,8.23
2019-03-17T00:25:09.560Z,8.11
2019-03-17T00:27:37.116Z,8.00
2019-03-17T00:30:08.843Z,8.05
2019-03-17T00:32:37.703Z,8.11
2019-03-17T00:35:07.244Z,8.16
2019-03-17T00:37:35.728Z,8.19
2019-03-17T00:40:09.492Z,8.25
2019-03-17T00:42:38.143Z,8.08
2019-03-17T00:45:11.758Z,7.98
2019-03-17T00:47:40.681Z,8.04
2019-03-17T00:50:12.838Z,8.13
2019-03-17T00:52:41.399Z,8.10
2019-03-17T00:55:10.174Z,8.22
2019-03-17T00:57:38.811Z,8.24
2019-03-17T01:00:10.340Z,8.19
2019-03-17T01:02:38.935Z,8.20
2019-03-17T01:05:07.681Z,8.22
2019-03-17T01:07:36.299Z,8.23
2019-03-17T01:10:06.815Z,8.25
2019-03-17T01:12:35.377Z,8.26
2019-03-17T01:15:05.594Z,8.26
2019-03-17T01:17:34.232Z,8.18
2019-03-17T01:20:02.800Z,8.04
2019-03-17T01:22:31.579Z,8.11
2019-03-17T01:25:00.360Z,8.06
2019-03-17T01:27:28.948Z,7.94
2019-03-17T01:29:58.460Z,7.91
2019-03-17T01:32:27.014Z,7.82
2019-03-17T01:35:08.253Z,7.72
2019-03-17T01:37:27.036Z,7.75
2019-03-17T01:39:55.532Z,7.66
2019-03-17T01:42:24.107Z,7.64
2019-03-17T01:44:52.771Z,7.59
2019-03-17T01:47:21.339Z,7.58
2019-03-17T01:49:49.814Z,7.53
2019-03-17T01:52:18.667Z,7.54
2019-03-17T01:54:47.293Z,7.53
2019-03-17T01:57:15.860Z,7.48
2019-03-17T01:59:44.621Z,7.45
2019-03-17T02:02:13.315Z,7.38
2019-03-17T02:04:41.798Z,7.38
2019-03-17T02:07:10.388Z,7.37
2019-03-17T02:09:39.014Z,7.41
2019-03-17T02:12:07.607Z,7.40
2019-03-17T02:14:36.288Z,7.41
2019-03-17T02:17:04.915Z,7.33
2019-03-17T02:19:33.547Z,7.47
2019-03-17T02:22:02.145Z,7.47
2019-03-17T02:24:31.007Z,7.43
2019-03-17T02:26:59.568Z,7.39
2019-03-17T02:29:28.442Z,7.34
2019-03-17T02:31:57.001Z,7.31
2019-03-17T02:34:25.512Z,7.28
2019-03-17T02:36:54.088Z,7.45
2019-03-17T02:39:26.225Z,7.62
2019-03-17T02:41:53.847Z,7.88
2019-03-17T02:44:22.530Z,7.92
2019-03-17T02:46:51.088Z,7.88
2019-03-17T02:49:19.572Z,7.87
2019-03-17T02:51:48.103Z,7.87
2019-03-17T02:54:16.735Z,7.85
2019-03-17T02:56:45.390Z,7.79
2019-03-17T02:59:13.922Z,7.78
2019-03-17T03:01:42.661Z,7.77
2019-03-17T03:04:11.304Z,7.70
2019-03-17T03:06:39.903Z,7.66
2019-03-17T03:09:08.529Z,7.63
2019-03-17T03:11:37.085Z,7.60
2019-03-17T03:14:05.760Z,7.57
2019-03-17T03:16:34.328Z,7.60
2019-03-17T03:19:02.883Z,7.53
2019-03-17T03:21:31.630Z,7.47
2019-03-17T03:24:00.170Z,7.34
2019-03-17T03:26:28.679Z,7.32
2019-03-17T03:28:57.614Z,7.26
2019-03-17T03:31:26.270Z,7.28
2019-03-17T03:33:54.738Z,7.26
2019-03-17T03:36:23.513Z,7.17
2019-03-17T03:38:52.262Z,7.29
2019-03-17T03:41:20.821Z,7.20
2019-03-17T03:43:49.344Z,7.28
2019-03-17T03:46:17.905Z,7.16
2019-03-17T03:48:46.554Z,7.11
2019-03-17T03:51:15.294Z,7.10
2019-03-17T03:53:43.791Z,7.13
2019-03-17T03:56:12.376Z,7.12
2019-03-17T03:58:41.053Z,7.15
2019-03-17T04:01:09.599Z,7.20
2019-03-17T04:03:38.244Z,7.24
2019-03-17T04:06:07.068Z,7.39
2019-03-17T04:08:35.555Z,7.51
2019-03-17T04:11:04.124Z,7.68
2019-03-17T04:13:32.786Z,7.68
2019-03-17T04:16:01.341Z,7.69
2019-03-17T04:18:29.820Z,7.77
2019-03-17T04:20:58.572Z,7.72
2019-03-17T04:23:27.195Z,7.68
2019-03-17T04:25:55.829Z,7.65
2019-03-17T04:28:24.424Z,7.68
2019-03-17T04:30:52.988Z,7.78
2019-03-17T04:33:21.645Z,7.76
2019-03-17T04:35:50.505Z,7.85
2019-03-17T04:38:19.065Z,7.96
2019-03-17T04:40:47.722Z,8.01
2019-03-17T04:43:16.246Z,8.09
2019-03-17T04:45:44.910Z,8.24
2019-03-17T04:48:13.537Z,8.42
2019-03-17T04:50:42.148Z,8.27
2019-03-17T04:53:10.708Z,8.09
2019-03-17T04:55:39.274Z,7.81
2019-03-17T04:58:07.932Z,7.60
2019-03-17T05:00:36.494Z,7.48
2019-03-17T05:03:04.992Z,7.73
2019-03-17T05:05:33.585Z,8.07
2019-03-17T05:08:02.216Z,8.30
2019-03-17T05:10:30.852Z,8.59
2019-03-17T05:12:59.385Z,8.77
2019-03-17T05:15:28.005Z,8.85
2019-03-17T05:17:56.585Z,9.02
2019-03-17T05:20:25.244Z,9.78
2019-03-17T05:22:53.878Z,10.08
2019-03-17T05:25:22.504Z,10.69
2019-03-17T05:27:51.109Z,11.54
2019-03-17T05:30:19.797Z,12.59
2019-03-17T05:32:48.434Z,13.83
2019-03-17T05:35:17.047Z,14.93
2019-03-17T05:37:45.583Z,15.54
2019-03-17T05:40:14.221Z,16.31
2019-03-17T05:42:42.884Z,16.39
2019-03-17T05:45:11.530Z,17.06
2019-03-17T05:47:40.095Z,16.78
2019-03-17T05:50:09.980Z,17.12
2019-03-17T05:52:38.605Z,17.88
2019-03-17T05:55:09.048Z,18.16
2019-03-17T05:57:37.652Z,18.33
2019-03-17T06:00:09.198Z,18.01
2019-03-17T06:02:37.699Z,18.70
2019-03-17T06:05:07.663Z,18.86
2019-03-17T06:07:36.300Z,18.83
2019-03-17T06:10:06.727Z,19.01
2019-03-17T06:12:35.363Z,19.57
2019-03-17T06:15:04.800Z,19.35
2019-03-17T06:17:33.427Z,19.01
2019-03-17T06:20:02.256Z,19.21
2019-03-17T06:22:30.757Z,20.00
2019-03-17T06:24:59.339Z,19.72
2019-03-17T06:27:28.043Z,18.74
2019-03-17T06:29:56.611Z,17.86
2019-03-17T06:32:25.109Z,18.18
2019-03-17T06:34:53.723Z,18.82
2019-03-17T06:37:31.047Z,18.48
2019-03-17T06:39:52.627Z,19.25
2019-03-17T06:42:21.120Z,19.68
2019-03-17T06:44:49.683Z,18.80
2019-03-17T06:47:18.603Z,18.81
2019-03-17T06:49:47.168Z,18.94
2019-03-17T06:52:15.684Z,19.37
2019-03-17T06:54:44.544Z,19.22
2019-03-17T06:57:13.189Z,19.45
2019-03-17T06:59:41.770Z,19.40
2019-03-17T07:02:10.295Z,20.39
2019-03-17T07:04:38.863Z,20.40
2019-03-17T07:07:07.566Z,21.31
2019-03-17T07:09:36.182Z,22.15
2019-03-17T07:12:04.808Z,22.45
2019-03-17T07:14:33.313Z,22.75
2019-03-17T07:17:01.981Z,21.16
2019-03-17T07:19:30.563Z,21.05
2019-03-17T07:21:59.202Z,20.68
2019-03-17T07:24:27.961Z,21.01
2019-03-17T07:26:56.442Z,20.76
2019-03-17T07:29:25.019Z,20.72
2019-03-17T07:31:53.710Z,21.14
2019-03-17T07:34:22.270Z,20.81
2019-03-17T07:36:50.768Z,21.06
2019-03-17T07:39:19.381Z,21.27
2019-03-17T07:41:48.009Z,21.55
2019-03-17T07:44:16.578Z,20.26
2019-03-17T07:46:45.257Z,19.54
2019-03-17T07:49:13.817Z,19.48
2019-03-17T07:51:42.448Z,19.71
2019-03-17T07:54:11.119Z,19.93
2019-03-17T07:56:39.680Z,19.95
2019-03-17T07:59:08.244Z,20.79
2019-03-17T08:01:36.774Z,20.84
2019-03-17T08:04:05.421Z,21.05
2019-03-17T08:06:34.057Z,20.65
2019-03-17T08:09:02.790Z,20.33
2019-03-17T08:11:31.312Z,20.94
2019-03-17T08:13:59.872Z,20.93
2019-03-17T08:16:28.544Z,20.98
2019-03-17T08:18:57.106Z,19.96
2019-03-17T08:21:25.616Z,19.28
2019-03-17T08:23:54.218Z,19.38
2019-03-17T08:26:22.859Z,18.59
2019-03-17T08:28:51.417Z,18.88
2019-03-17T08:31:19.960Z,18.60
2019-03-17T08:33:48.602Z,18.60
2019-03-17T08:36:17.166Z,17.98
2019-03-17T08:38:46.120Z,18.43
2019-03-17T08:41:14.766Z,18.81
2019-03-17T08:43:53.750Z,18.82
2019-03-17T08:46:13.729Z,17.81
2019-03-17T08:48:42.303Z,17.91
2019-03-17T08:51:10.952Z,18.26
2019-03-17T08:53:39.537Z,17.95
2019-03-17T08:56:08.086Z,18.33
2019-03-17T08:58:36.647Z,18.36
2019-03-17T09:01:05.321Z,18.04
2019-03-17T09:03:33.881Z,18.06
2019-03-17T09:06:02.444Z,18.36
2019-03-17T09:08:35.236Z,18.01
2019-03-17T09:11:01.392Z,18.37
2019-03-17T09:13:29.957Z,19.07
2019-03-17T09:15:58.587Z,19.60
2019-03-17T09:18:27.528Z,19.98
2019-03-17T09:20:56.017Z,20.39
2019-03-17T09:23:24.680Z,20.78
2019-03-17T09:25:53.312Z,20.98
2019-03-17T09:28:21.880Z,20.92
2019-03-17T09:30:50.490Z,21.15
2019-03-17T09:33:19.063Z,21.48
2019-03-17T09:35:47.746Z,21.17
2019-03-17T09:38:16.328Z,21.29
2019-03-17T09:40:44.834Z,21.47
2019-03-17T09:43:13.401Z,21.16
2019-03-17T09:45:42.062Z,21.44
2019-03-17T09:48:10.693Z,21.74
2019-03-17T09:50:39.258Z,22.12
2019-03-17T09:53:07.995Z,22.46
2019-03-17T09:55:36.553Z,22.78
2019-03-17T09:58:05.193Z,23.01
2019-03-17T10:00:33.857Z,23.27
2019-03-17T10:03:02.484Z,23.52
2019-03-17T10:05:31.045Z,23.91
2019-03-17T10:07:59.807Z,24.12
2019-03-17T10:10:28.438Z,24.55
2019-03-17T10:12:56.996Z,24.16
2019-03-17T10:15:25.609Z,24.39
2019-03-17T10:17:54.173Z,24.41
2019-03-17T10:20:22.797Z,23.89
2019-03-17T10:22:51.468Z,23.39
2019-03-17T10:25:19.959Z,23.54
2019-03-17T10:27:48.700Z,23.47
2019-03-17T10:30:21.018Z,23.62
2019-03-17T10:32:49.626Z,22.97
2019-03-17T10:35:18.258Z,22.45
2019-03-17T10:37:46.925Z,22.71
2019-03-17T10:40:19.565Z,23.24
2019-03-17T10:42:48.194Z,23.46
2019-03-17T10:45:16.900Z,23.31
2019-03-17T10:47:45.522Z,22.85
2019-03-17T10:50:24.394Z,22.29
2019-03-17T10:52:53.069Z,22.71
2019-03-17T10:55:21.714Z,22.55
2019-03-17T10:57:50.302Z,22.59
2019-03-17T11:00:20.040Z,22.31
2019-03-17T11:02:48.660Z,22.19
2019-03-17T11:05:17.562Z,21.58
2019-03-17T11:07:46.209Z,21.74
2019-03-17T11:10:15.245Z,21.75
2019-03-17T11:12:44.028Z,21.86
2019-03-17T11:15:17.755Z,21.89
2019-03-17T11:17:46.385Z,22.27
2019-03-17T11:20:15.340Z,22.35
2019-03-17T11:22:44.039Z,22.34
2019-03-17T11:25:20.143Z,22.06
2019-03-17T11:27:48.742Z,22.24
2019-03-17T11:30:19.352Z,21.79
2019-03-17T11:32:47.987Z,21.36
2019-03-17T11:35:16.747Z,21.13
2019-03-17T11:37:45.313Z,21.16
2019-03-17T11:40:15.903Z,21.31
2019-03-17T11:42:44.573Z,21.35
2019-03-17T11:45:14.201Z,21.35
2019-03-17T11:47:43.139Z,21.46
2019-03-17T11:50:19.191Z,21.41
2019-03-17T11:52:48.237Z,21.60
2019-03-17T11:55:16.870Z,21.53
2019-03-17T11:57:45.684Z,21.61
2019-03-17T12:00:19.892Z,21.39
2019-03-17T12:02:48.757Z,21.43
2019-03-17T12:05:17.390Z,21.51
2019-03-17T12:07:45.950Z,21.67
2019-03-17T12:10:16.752Z,21.64
2019-03-17T12:12:45.335Z,21.72
2019-03-17T12:15:22.281Z,21.96
2019-03-17T12:17:51.041Z,21.87
2019-03-17T12:20:19.764Z,21.77
2019-03-17T12:22:48.338Z,21.86
2019-03-17T12:25:18.216Z,22.05
2019-03-17T12:27:46.952Z,22.17
2019-03-17T12:30:18.488Z,22.15
2019-03-17T12:32:47.357Z,22.23
2019-03-17T12:35:16.096Z,22.37
2019-03-17T12:37:44.729Z,22.38
2019-03-17T12:40:13.329Z,22.24
2019-03-17T12:42:41.887Z,22.16
2019-03-17T12:45:11.524Z,22.26
2019-03-17T12:47:40.132Z,22.33
2019-03-17T12:50:13.915Z,22.39
2019-03-17T12:52:42.488Z,22.35
2019-03-17T12:55:11.253Z,22.33
2019-03-17T12:57:39.883Z,22.35
2019-03-17T13:00:19.816Z,22.53
2019-03-17T13:02:48.380Z,22.57
2019-03-17T13:05:17.018Z,22.38
2019-03-17T13:07:45.626Z,22.40
2019-03-17T13:10:16.756Z,22.48
2019-03-17T13:12:45.446Z,22.38
2019-03-17T13:15:14.130Z,22.30
2019-03-17T13:17:42.695Z,22.26
2019-03-17T13:20:13.734Z,22.38
2019-03-17T13:22:42.332Z,22.14
2019-03-17T13:25:12.163Z,22.16
2019-03-17T13:27:40.893Z,22.15
2019-03-17T13:30:17.618Z,22.28
2019-03-17T13:32:46.268Z,22.35
2019-03-17T13:35:15.187Z,22.36
2019-03-17T13:37:43.803Z,22.26
2019-03-17T13:40:27.686Z,22.46
2019-03-17T13:42:45.295Z,22.36
2019-03-17T13:45:14.271Z,22.37
2019-03-17T13:47:42.902Z,22.36
2019-03-17T13:50:21.825Z,22.47
2019-03-17T13:52:50.473Z,22.47
2019-03-17T13:55:19.089Z,22.53
2019-03-17T13:57:50.668Z,22.43
2019-03-17T14:00:19.409Z,22.49
2019-03-17T14:02:48.035Z,22.54
2019-03-17T14:05:16.707Z,22.53
2019-03-17T14:07:45.339Z,22.65
2019-03-17T14:10:18.044Z,22.60
2019-03-17T14:12:46.959Z,22.57
2019-03-17T14:15:15.997Z,22.52
2019-03-17T14:17:44.634Z,22.49
2019-03-17T14:20:21.185Z,22.41
2019-03-17T14:22:49.991Z,22.36
2019-03-17T14:25:24.444Z,22.28
2019-03-17T14:27:53.074Z,22.32
2019-03-17T14:30:21.705Z,22.21
2019-03-17T14:32:50.462Z,22.14
2019-03-17T14:35:21.474Z,22.27
2019-03-17T14:37:49.470Z,22.21
2019-03-17T14:40:18.509Z,22.16
2019-03-17T14:42:49.477Z,22.17
2019-03-17T14:45:18.512Z,22.13
2019-03-17T14:47:47.176Z,22.15
2019-03-17T14:50:24.524Z,22.09
2019-03-17T14:52:53.347Z,22.13
2019-03-17T14:55:22.002Z,22.08
2019-03-17T14:57:50.631Z,21.92
2019-03-17T15:00:20.418Z,21.91
2019-03-17T15:02:49.077Z,21.91
2019-03-17T15:05:17.708Z,21.83
2019-03-17T15:07:47.161Z,21.78
2019-03-17T15:10:20.394Z,21.83
2019-03-17T15:12:49.238Z,21.72
2019-03-17T15:15:19.110Z,21.79
2019-03-17T15:17:48.172Z,21.71
2019-03-17T15:20:19.108Z,21.55
2019-03-17T15:22:47.771Z,21.46
2019-03-17T15:25:16.496Z,21.57
2019-03-17T15:27:45.167Z,21.54
2019-03-17T15:30:27.783Z,21.58
2019-03-17T15:32:56.409Z,21.35
2019-03-17T15:35:25.146Z,21.27
2019-03-17T15:37:53.817Z,21.26
2019-03-17T15:40:22.658Z,21.33
2019-03-17T15:42:51.392Z,21.27
2019-03-17T15:45:21.285Z,21.24
2019-03-17T15:47:49.904Z,21.19
2019-03-17T15:50:25.887Z,21.17
2019-03-17T15:52:54.517Z,21.01
2019-03-17T15:55:23.159Z,20.92
2019-03-17T15:57:51.822Z,20.95
2019-03-17T16:00:27.294Z,20.87
2019-03-17T16:02:55.975Z,20.70
2019-03-17T16:05:24.753Z,20.57
2019-03-17T16:07:53.383Z,20.44
2019-03-17T16:10:23.957Z,20.25
2019-03-17T16:12:52.629Z,20.21
2019-03-17T16:15:21.251Z,20.05
2019-03-17T16:17:49.879Z,19.93
2019-03-17T16:20:20.740Z,19.81
2019-03-17T16:22:49.456Z,19.70
2019-03-17T16:25:38.217Z,19.54
2019-03-17T16:28:06.880Z,19.48
2019-03-17T16:30:35.768Z,19.32
2019-03-17T16:33:04.741Z,19.21
2019-03-17T16:35:33.381Z,19.08
2019-03-17T16:38:02.027Z,18.99
2019-03-17T16:40:34.711Z,18.88
2019-03-17T16:43:03.388Z,18.70
2019-03-17T16:45:32.022Z,18.58
2019-03-17T16:48:00.686Z,18.41
2019-03-17T16:50:29.328Z,18.34
2019-03-17T16:52:58.197Z,18.20
2019-03-17T16:55:26.864Z,18.01
2019-03-17T16:57:55.487Z,17.91
2019-03-17T17:00:25.028Z,17.78
2019-03-17T17:02:54.038Z,17.55
2019-03-17T17:05:24.728Z,17.45
2019-03-17T17:07:53.358Z,17.27
2019-03-17T17:10:24.200Z,17.21
2019-03-17T17:12:52.842Z,17.17
2019-03-17T17:15:27.260Z,17.10
2019-03-17T17:17:56.094Z,17.02
2019-03-17T17:20:27.492Z,16.85
2019-03-17T17:22:56.284Z,16.76
2019-03-17T17:25:24.927Z,16.65
2019-03-17T17:27:53.574Z,16.58
2019-03-17T17:30:22.583Z,16.50
2019-03-17T17:32:51.329Z,16.44
2019-03-17T17:35:19.980Z,16.32
2019-03-17T17:37:48.659Z,16.36
2019-03-17T17:40:24.427Z,16.36
2019-03-17T17:42:53.042Z,16.29
2019-03-17T17:45:25.407Z,16.25
2019-03-17T17:47:53.984Z,16.17
2019-03-17T17:50:27.585Z,16.14
2019-03-17T17:52:56.217Z,15.99
2019-03-17T17:55:24.872Z,15.88
2019-03-17T17:57:53.491Z,15.64
2019-03-17T18:00:24.205Z,15.58
2019-03-17T18:02:52.781Z,15.41
2019-03-17T18:05:21.372Z,15.38
2019-03-17T18:07:49.979Z,15.22
2019-03-17T18:10:19.528Z,15.07
2019-03-17T18:12:48.164Z,15.02
2019-03-17T18:15:21.819Z,15.05
2019-03-17T18:17:50.543Z,15.04
2019-03-17T18:20:19.197Z,14.92
2019-03-17T18:22:47.880Z,14.79
2019-03-17T18:25:19.229Z,14.83
2019-03-17T18:27:47.978Z,14.76
2019-03-17T18:30:18.632Z,14.77
2019-03-17T18:32:47.279Z,14.69
2019-03-17T18:35:15.930Z,14.58
2019-03-17T18:37:44.632Z,14.55
2019-03-17T18:40:22.752Z,14.43
2019-03-17T18:42:51.427Z,14.38
2019-03-17T18:45:24.263Z,14.32
2019-03-17T18:47:52.845Z,14.28
2019-03-17T18:50:21.684Z,14.30
2019-03-17T18:52:50.333Z,14.20
2019-03-17T18:55:19.171Z,14.09
2019-03-17T18:57:47.788Z,14.06
2019-03-17T19:00:26.435Z,14.00
2019-03-17T19:02:55.045Z,13.96
2019-03-17T19:05:23.699Z,13.97
2019-03-17T19:07:52.265Z,13.91
2019-03-17T19:10:21.446Z,13.91
2019-03-17T19:12:50.213Z,13.88
2019-03-17T19:15:22.116Z,13.80
2019-03-17T19:17:50.898Z,13.87
2019-03-17T19:20:20.537Z,13.80
2019-03-17T19:22:49.164Z,13.72
2019-03-17T19:25:19.049Z,13.58
2019-03-17T19:27:47.713Z,13.55
2019-03-17T19:30:18.220Z,13.54
2019-03-17T19:32:47.255Z,13.58
2019-03-17T19:35:15.934Z,13.54
2019-03-17T19:37:44.719Z,13.47
2019-03-17T19:40:15.463Z,13.39
2019-03-17T19:42:44.094Z,13.32
2019-03-17T19:45:13.036Z,13.40
2019-03-17T19:47:42.150Z,13.39
2019-03-17T19:50:15.589Z,13.38
2019-03-17T19:52:44.162Z,13.42
2019-03-17T19:55:13.049Z,13.48
2019-03-17T19:57:41.691Z,13.42
2019-03-17T20:00:15.478Z,13.38
2019-03-17T20:02:46.991Z,13.39
2019-03-17T20:05:14.849Z,13.35
2019-03-17T20:07:43.489Z,13.35
2019-03-17T20:10:21.010Z,13.19
2019-03-17T20:12:49.577Z,13.12
2019-03-17T20:15:18.219Z,13.09
2019-03-17T20:17:46.933Z,12.94
2019-03-17T20:20:15.783Z,12.92
2019-03-17T20:22:44.430Z,12.88
2019-03-17T20:25:13.400Z,12.90
2019-03-17T20:27:41.976Z,12.92
2019-03-17T20:30:15.451Z,12.75
2019-03-17T20:32:44.179Z,12.68
2019-03-17T20:35:13.648Z,12.62
2019-03-17T20:37:42.279Z,12.54
2019-03-17T20:40:18.733Z,12.46
2019-03-17T20:42:47.370Z,12.40
2019-03-17T20:45:16.397Z,12.43
2019-03-17T20:47:45.091Z,12.49
2019-03-17T20:50:17.576Z,12.45
2019-03-17T20:52:46.225Z,12.33
2019-03-17T20:55:14.939Z,12.46
2019-03-17T20:57:43.589Z,12.56
2019-03-17T21:00:16.966Z,12.55
2019-03-17T21:02:45.651Z,12.60
2019-03-17T21:05:14.416Z,12.63
2019-03-17T21:07:43.649Z,12.63
2019-03-17T21:10:19.596Z,12.54
2019-03-17T21:12:48.174Z,12.34
2019-03-17T21:15:20.765Z,12.26
2019-03-17T21:17:49.374Z,12.27
2019-03-17T21:20:19.344Z,12.22
2019-03-17T21:22:47.972Z,12.12
2019-03-17T21:25:16.638Z,11.81
2019-03-17T21:27:45.211Z,11.54
2019-03-17T21:30:21.723Z,11.45
2019-03-17T21:32:50.306Z,11.49
2019-03-17T21:35:18.957Z,11.70
2019-03-17T21:37:47.623Z,11.74
2019-03-17T21:40:16.377Z,11.80
2019-03-17T21:42:44.976Z,11.76
2019-03-17T21:45:14.354Z,11.63
2019-03-17T21:47:43.017Z,11.42
2019-03-17T21:50:14.036Z,11.28
2019-03-17T21:52:42.711Z,11.24
2019-03-17T21:55:12.247Z,11.22
2019-03-17T21:57:40.883Z,11.30
2019-03-17T22:00:14.747Z,11.36
2019-03-17T22:02:43.340Z,11.35
2019-03-17T22:05:12.882Z,11.26
2019-03-17T22:07:49.755Z,11.15
2019-03-17T22:10:16.195Z,11.02
2019-03-17T22:12:44.847Z,10.95
2019-03-17T22:15:18.328Z,10.86
2019-03-17T22:17:46.971Z,10.75
2019-03-17T22:20:15.803Z,10.74
2019-03-17T22:22:44.513Z,10.75
2019-03-17T22:25:14.049Z,10.66
2019-03-17T22:27:42.697Z,10.56
2019-03-17T22:30:19.985Z,10.49
2019-03-17T22:32:48.623Z,10.56
2019-03-17T22:35:17.559Z,10.48
2019-03-17T22:37:46.426Z,10.43
2019-03-17T22:40:16.838Z,10.39
2019-03-17T22:42:45.415Z,10.26
2019-03-17T22:45:15.104Z,10.12
2019-03-17T22:47:43.854Z,10.05
2019-03-17T22:50:13.585Z,9.94
2019-03-17T22:52:42.303Z,9.90
2019-03-17T22:55:11.168Z,10.01
2019-03-17T22:57:39.747Z,9.84
2019-03-17T23:00:18.644Z,9.69
2019-03-17T23:02:47.279Z,9.58
2019-03-17T23:05:15.947Z,9.52
2019-03-17T23:07:44.523Z,9.50
2019-03-17T23:10:13.454Z,9.43
2019-03-17T23:12:42.140Z,9.41
2019-03-17T23:15:12.685Z,9.35
2019-03-17T23:17:41.238Z,9.40
2019-03-17T23:20:14.746Z,9.29
2019-03-17T23:22:43.307Z,9.24
2019-03-17T23:25:12.478Z,9.23
2019-03-17T23:27:41.225Z,9.19
2019-03-17T23:30:18.062Z,9.32
2019-03-17T23:32:49.174Z,9.34
2019-03-17T23:35:16.989Z,9.37
2019-03-17T23:37:45.674Z,9.26
2019-03-17T23:40:15.706Z,9.33
2019-03-17T23:42:44.260Z,9.36
2019-03-17T23:45:13.359Z,9.29
2019-03-17T23:47:41.997Z,9.24
2019-03-17T23:50:15.114Z,9.34
2019-03-17T23:52:44.062Z,9.29
2019-03-17T23:55:13.918Z,9.04
2019-03-17T23:57:42.645Z,9.19
